sensor_id;sensor_type;location;lat;lon;timestamp;pressure;altitude;pressure_sealevel;temperature;humidity
60228;BME280;46091;46.512;6.626;2023-03-16T06:19:42;97021.81;;;7.88;47.40
60228;BME280;46091;46.512;6.626;2023-03-16T06:21:45;97027.47;;;8.16;47.13
60228;BME280;46091;46.512;6.626;2023-03-16T06:23:49;97024.22;;;8.37;46.98
60228;BME280;46091;46.512;6.626;2023-03-16T06:25:52;97025.59;;;8.56;47.09
60228;BME280;46091;46.512;6.626;2023-03-16T06:27:56;97025.03;;;8.69;46.91
60228;BME280;46091;46.512;6.626;2023-03-16T06:29:59;97022.16;;;8.79;46.76
60228;BME280;46091;46.512;6.626;2023-03-16T06:32:02;97018.00;;;8.84;46.78
60228;BME280;46091;46.512;6.626;2023-03-16T06:34:05;97020.56;;;8.92;46.67
60228;BME280;46091;46.512;6.626;2023-03-16T06:36:10;97019.31;;;9.03;46.53
60228;BME280;46091;46.512;6.626;2023-03-16T06:38:14;97022.91;;;9.10;46.43
60228;BME280;46091;46.512;6.626;2023-03-16T06:40:17;97018.53;;;9.17;46.43
60228;BME280;46091;46.512;6.626;2023-03-16T06:42:20;97025.09;;;9.21;46.19
60228;BME280;46091;46.512;6.626;2023-03-16T06:44:24;97028.00;;;9.26;46.06
60228;BME280;46091;46.512;6.626;2023-03-16T06:46:27;97027.94;;;9.34;45.95
60228;BME280;46091;46.512;6.626;2023-03-16T06:48:30;97031.53;;;9.42;46.29
60228;BME280;46091;46.512;6.626;2023-03-16T06:50:33;97028.16;;;9.48;45.92
60228;BME280;46091;46.512;6.626;2023-03-16T06:52:37;97032.41;;;9.49;46.20
60228;BME280;46091;46.512;6.626;2023-03-16T06:54:40;97028.44;;;9.53;45.73
60228;BME280;46091;46.512;6.626;2023-03-16T06:56:43;97024.63;;;9.55;45.59
60228;BME280;46091;46.512;6.626;2023-03-16T06:58:47;97018.78;;;9.60;45.84
60228;BME280;46091;46.512;6.626;2023-03-16T07:00:49;97018.88;;;9.67;45.74
60228;BME280;46091;46.512;6.626;2023-03-16T07:02:54;97034.53;;;9.68;45.62
60228;BME280;46091;46.512;6.626;2023-03-16T07:05:00;97031.09;;;9.68;45.39
60228;BME280;46091;46.512;6.626;2023-03-16T07:07:03;97028.38;;;9.76;45.48
60228;BME280;46091;46.512;6.626;2023-03-16T07:09:08;97023.53;;;9.79;45.47
60228;BME280;46091;46.512;6.626;2023-03-16T07:11:13;97023.53;;;9.79;45.30
60228;BME280;46091;46.512;6.626;2023-03-16T07:13:16;97030.81;;;9.77;45.17
60228;BME280;46091;46.512;6.626;2023-03-16T07:15:19;97025.16;;;9.80;45.00
60228;BME280;46091;46.512;6.626;2023-03-16T07:17:22;97025.16;;;9.80;45.12
60228;BME280;46091;46.512;6.626;2023-03-16T07:19:25;97026.44;;;9.84;45.13
60228;BME280;46091;46.512;6.626;2023-03-16T07:21:28;97025.78;;;9.82;45.12
60228;BME280;46091;46.512;6.626;2023-03-16T07:23:32;97014.59;;;9.80;45.11
60228;BME280;46091;46.512;6.626;2023-03-16T07:25:36;97013.22;;;9.84;45.19
60228;BME280;46091;46.512;6.626;2023-03-16T07:27:40;97016.34;;;9.88;44.84
60228;BME280;46091;46.512;6.626;2023-03-16T07:29:44;97008.41;;;9.88;44.99
60228;BME280;46091;46.512;6.626;2023-03-16T07:31:47;97012.69;;;9.89;44.73
60228;BME280;46091;46.512;6.626;2023-03-16T07:33:50;97016.78;;;9.91;44.72
60228;BME280;46091;46.512;6.626;2023-03-16T07:35:52;97014.78;;;9.93;44.84
60228;BME280;46091;46.512;6.626;2023-03-16T07:37:55;97023.69;;;9.92;44.80
60228;BME280;46091;46.512;6.626;2023-03-16T07:40:00;97019.22;;;9.93;44.62
60228;BME280;46091;46.512;6.626;2023-03-16T07:42:05;97015.16;;;9.90;44.64
60228;BME280;46091;46.512;6.626;2023-03-16T07:44:11;97014.31;;;9.90;44.79
60228;BME280;46091;46.512;6.626;2023-03-16T07:46:14;97017.97;;;9.89;44.70
60228;BME280;46091;46.512;6.626;2023-03-16T07:48:18;97009.22;;;9.88;44.96
60228;BME280;46091;46.512;6.626;2023-03-16T07:50:21;97006.59;;;9.88;44.95
60228;BME280;46091;46.512;6.626;2023-03-16T07:52:24;97007.47;;;9.96;44.76
60228;BME280;46091;46.512;6.626;2023-03-16T07:54:27;97012.41;;;9.99;44.86
60228;BME280;46091;46.512;6.626;2023-03-16T07:56:30;97010.78;;;9.98;44.68
60228;BME280;46091;46.512;6.626;2023-03-16T07:58:50;97015.06;;;9.99;45.12
60228;BME280;46091;46.512;6.626;2023-03-16T08:00:55;97021.41;;;10.04;44.83
60228;BME280;46091;46.512;6.626;2023-03-16T08:02:58;97015.13;;;10.05;44.90
60228;BME280;46091;46.512;6.626;2023-03-16T08:05:02;97010.47;;;10.07;44.96
60228;BME280;46091;46.512;6.626;2023-03-16T08:07:05;97012.13;;;10.08;44.91
60228;BME280;46091;46.512;6.626;2023-03-16T08:09:08;97011.75;;;10.11;44.79
60228;BME280;46091;46.512;6.626;2023-03-16T08:11:12;97020.13;;;10.15;44.66
60228;BME280;46091;46.512;6.626;2023-03-16T08:13:15;97018.09;;;10.17;44.84
60228;BME280;46091;46.512;6.626;2023-03-16T08:15:19;97026.66;;;10.19;45.09
60228;BME280;46091;46.512;6.626;2023-03-16T08:17:25;97026.97;;;10.24;44.77
60228;BME280;46091;46.512;6.626;2023-03-16T08:19:28;97024.97;;;10.26;44.85
60228;BME280;46091;46.512;6.626;2023-03-16T08:21:31;97018.28;;;10.30;44.83
60228;BME280;46091;46.512;6.626;2023-03-16T08:23:38;97024.78;;;10.28;44.86
60228;BME280;46091;46.512;6.626;2023-03-16T08:25:41;97030.25;;;10.26;44.92
60228;BME280;46091;46.512;6.626;2023-03-16T08:27:44;97024.59;;;10.29;44.71
60228;BME280;46091;46.512;6.626;2023-03-16T08:29:50;97035.63;;;10.33;44.76
60228;BME280;46091;46.512;6.626;2023-03-16T08:31:55;97028.31;;;10.35;44.60
60228;BME280;46091;46.512;6.626;2023-03-16T08:33:58;97030.97;;;10.35;44.35
60228;BME280;46091;46.512;6.626;2023-03-16T08:36:01;97031.34;;;10.32;44.62
60228;BME280;46091;46.512;6.626;2023-03-16T08:38:03;97029.72;;;10.31;44.65
60228;BME280;46091;46.512;6.626;2023-03-16T08:40:07;97025.88;;;10.33;44.74
60228;BME280;46091;46.512;6.626;2023-03-16T08:42:14;97022.28;;;10.41;44.54
60228;BME280;46091;46.512;6.626;2023-03-16T08:44:17;97022.75;;;10.44;44.51
60228;BME280;46091;46.512;6.626;2023-03-16T08:46:21;97021.56;;;10.47;44.49
60228;BME280;46091;46.512;6.626;2023-03-16T08:48:26;97020.91;;;10.45;44.33
60228;BME280;46091;46.512;6.626;2023-03-16T08:50:29;97017.72;;;10.49;44.37
60228;BME280;46091;46.512;6.626;2023-03-16T08:52:33;97012.22;;;10.51;44.48
60228;BME280;46091;46.512;6.626;2023-03-16T08:54:36;97007.41;;;10.55;44.36
60228;BME280;46091;46.512;6.626;2023-03-16T08:56:40;97006.25;;;10.64;44.45
60228;BME280;46091;46.512;6.626;2023-03-16T08:58:42;96999.59;;;10.68;44.37
60228;BME280;46091;46.512;6.626;2023-03-16T09:00:46;96999.84;;;10.73;43.98
60228;BME280;46091;46.512;6.626;2023-03-16T09:02:51;96999.84;;;10.73;44.00
60228;BME280;46091;46.512;6.626;2023-03-16T09:04:56;96999.84;;;10.73;44.30
60228;BME280;46091;46.512;6.626;2023-03-16T09:06:59;96999.50;;;10.76;43.81
60228;BME280;46091;46.512;6.626;2023-03-16T09:09:10;97004.38;;;10.79;44.05
60228;BME280;46091;46.512;6.626;2023-03-16T09:11:14;97004.00;;;10.82;44.20
60228;BME280;46091;46.512;6.626;2023-03-16T09:13:18;97009.69;;;10.79;44.26
60228;BME280;46091;46.512;6.626;2023-03-16T09:15:21;97006.41;;;10.77;43.81
60228;BME280;46091;46.512;6.626;2023-03-16T09:17:24;97016.16;;;10.76;44.09
60228;BME280;46091;46.512;6.626;2023-03-16T09:19:27;97014.59;;;10.82;43.91
60228;BME280;46091;46.512;6.626;2023-03-16T09:21:52;97011.56;;;10.85;43.91
60228;BME280;46091;46.512;6.626;2023-03-16T09:23:55;97010.94;;;10.83;43.82
60228;BME280;46091;46.512;6.626;2023-03-16T09:25:59;97013.84;;;10.88;43.98
60228;BME280;46091;46.512;6.626;2023-03-16T09:28:04;97003.69;;;10.92;43.85
60228;BME280;46091;46.512;6.626;2023-03-16T09:30:10;97003.50;;;10.93;43.89
60228;BME280;46091;46.512;6.626;2023-03-16T09:32:14;96995.16;;;10.96;43.72
60228;BME280;46091;46.512;6.626;2023-03-16T09:34:17;96986.88;;;10.99;44.08
60228;BME280;46091;46.512;6.626;2023-03-16T09:36:20;96984.03;;;11.01;43.68
60228;BME280;46091;46.512;6.626;2023-03-16T09:38:25;96989.13;;;11.02;43.87
60228;BME280;46091;46.512;6.626;2023-03-16T09:40:28;96994.44;;;11.02;43.98
60228;BME280;46091;46.512;6.626;2023-03-16T09:42:35;96989.31;;;11.01;43.75
60228;BME280;46091;46.512;6.626;2023-03-16T09:44:46;96996.44;;;11.00;44.10
60228;BME280;46091;46.512;6.626;2023-03-16T09:46:55;96992.34;;;10.98;43.82
60228;BME280;46091;46.512;6.626;2023-03-16T09:49:01;96972.63;;;11.00;43.91
60228;BME280;46091;46.512;6.626;2023-03-16T09:51:09;96979.16;;;11.04;43.90
60228;BME280;46091;46.512;6.626;2023-03-16T09:53:21;96976.94;;;11.08;43.93
60228;BME280;46091;46.512;6.626;2023-03-16T09:55:31;96972.13;;;11.12;43.81
60228;BME280;46091;46.512;6.626;2023-03-16T09:57:37;96967.66;;;11.12;43.68
60228;BME280;46091;46.512;6.626;2023-03-16T09:59:41;96973.34;;;11.16;43.72
60228;BME280;46091;46.512;6.626;2023-03-16T10:01:54;96973.34;;;11.16;43.67
60228;BME280;46091;46.512;6.626;2023-03-16T10:04:11;96973.97;;;11.18;43.80
60228;BME280;46091;46.512;6.626;2023-03-16T10:06:17;96976.22;;;11.21;43.59
60228;BME280;46091;46.512;6.626;2023-03-16T10:08:22;96972.34;;;11.17;43.69
60228;BME280;46091;46.512;6.626;2023-03-16T10:10:38;96967.25;;;11.15;43.81
60228;BME280;46091;46.512;6.626;2023-03-16T10:12:49;96960.56;;;11.19;43.74
60228;BME280;46091;46.512;6.626;2023-03-16T10:14:56;96964.47;;;11.23;43.63
60228;BME280;46091;46.512;6.626;2023-03-16T10:17:02;96964.88;;;11.27;43.54
60228;BME280;46091;46.512;6.626;2023-03-16T10:19:11;96964.50;;;11.30;43.63
60228;BME280;46091;46.512;6.626;2023-03-16T10:21:16;96957.56;;;11.29;43.46
60228;BME280;46091;46.512;6.626;2023-03-16T10:23:22;96961.84;;;11.30;43.54
60228;BME280;46091;46.512;6.626;2023-03-16T10:25:31;96960.03;;;11.30;43.73
60228;BME280;46091;46.512;6.626;2023-03-16T10:27:38;96965.75;;;11.34;43.58
60228;BME280;46091;46.512;6.626;2023-03-16T10:29:42;96947.66;;;11.37;43.84
60228;BME280;46091;46.512;6.626;2023-03-16T10:31:45;96953.56;;;11.40;43.52
60228;BME280;46091;46.512;6.626;2023-03-16T10:33:51;96954.00;;;11.43;43.60
60228;BME280;46091;46.512;6.626;2023-03-16T10:35:59;96962.59;;;11.45;43.20
60228;BME280;46091;46.512;6.626;2023-03-16T10:38:06;96959.94;;;11.45;43.24
60228;BME280;46091;46.512;6.626;2023-03-16T10:40:10;96964.22;;;11.46;43.42
60228;BME280;46091;46.512;6.626;2023-03-16T10:42:17;96973.97;;;11.46;43.18
60228;BME280;46091;46.512;6.626;2023-03-16T10:44:23;96966.03;;;11.46;43.16
60228;BME280;46091;46.512;6.626;2023-03-16T10:46:27;96961.56;;;11.46;43.08
60228;BME280;46091;46.512;6.626;2023-03-16T10:48:39;96968.25;;;11.42;43.18
60228;BME280;46091;46.512;6.626;2023-03-16T10:50:48;96971.28;;;11.39;43.33
60228;BME280;46091;46.512;6.626;2023-03-16T10:52:53;96977.81;;;11.43;43.06
60228;BME280;46091;46.512;6.626;2023-03-16T10:55:05;96972.34;;;11.45;43.04
60228;BME280;46091;46.512;6.626;2023-03-16T10:57:13;96968.50;;;11.47;43.21
60228;BME280;46091;46.512;6.626;2023-03-16T10:59:27;96970.31;;;11.47;43.22
60228;BME280;46091;46.512;6.626;2023-03-16T11:01:30;96970.53;;;11.45;42.82
60228;BME280;46091;46.512;6.626;2023-03-16T11:03:37;96972.72;;;11.42;42.93
60228;BME280;46091;46.512;6.626;2023-03-16T11:05:41;96970.69;;;11.44;42.89
60228;BME280;46091;46.512;6.626;2023-03-16T11:07:49;96972.56;;;11.50;42.94
60228;BME280;46091;46.512;6.626;2023-03-16T11:09:54;96967.69;;;11.53;42.90
60228;BME280;46091;46.512;6.626;2023-03-16T11:12:00;96962.03;;;11.56;42.87
60228;BME280;46091;46.512;6.626;2023-03-16T11:14:17;96963.66;;;11.57;42.66
60228;BME280;46091;46.512;6.626;2023-03-16T11:16:27;96959.81;;;11.60;42.44
60228;BME280;46091;46.512;6.626;2023-03-16T11:18:36;96960.03;;;11.65;42.50
60228;BME280;46091;46.512;6.626;2023-03-16T11:20:40;96959.47;;;11.70;42.51
60228;BME280;46091;46.512;6.626;2023-03-16T11:22:44;96954.97;;;11.70;42.66
60228;BME280;46091;46.512;6.626;2023-03-16T11:24:52;96967.41;;;11.70;42.33
60228;BME280;46091;46.512;6.626;2023-03-16T11:26:59;96958.63;;;11.69;42.54
60228;BME280;46091;46.512;6.626;2023-03-16T11:29:06;96958.59;;;11.62;42.67
60228;BME280;46091;46.512;6.626;2023-03-16T11:31:19;96959.22;;;11.64;42.34
60228;BME280;46091;46.512;6.626;2023-03-16T11:33:26;96959.00;;;11.59;42.20
60228;BME280;46091;46.512;6.626;2023-03-16T11:35:38;96952.47;;;11.55;42.26
60228;BME280;46091;46.512;6.626;2023-03-16T11:38:09;96957.69;;;11.49;42.05
60228;BME280;46091;46.512;6.626;2023-03-16T11:40:23;96959.75;;;11.47;42.32
60228;BME280;46091;46.512;6.626;2023-03-16T11:42:33;96955.66;;;11.44;42.16
60228;BME280;46091;46.512;6.626;2023-03-16T11:44:43;96960.50;;;11.41;41.95
60228;BME280;46091;46.512;6.626;2023-03-16T11:46:52;96952.94;;;11.37;42.37
60228;BME280;46091;46.512;6.626;2023-03-16T11:49:13;96957.03;;;11.40;42.08
60228;BME280;46091;46.512;6.626;2023-03-16T11:51:40;96959.25;;;11.36;41.97
60228;BME280;46091;46.512;6.626;2023-03-16T11:53:49;96951.13;;;11.38;41.82
60228;BME280;46091;46.512;6.626;2023-03-16T11:56:02;96941.75;;;11.42;42.10
60228;BME280;46091;46.512;6.626;2023-03-16T11:58:22;96948.53;;;11.51;41.72
60228;BME280;46091;46.512;6.626;2023-03-16T12:00:37;96958.56;;;11.56;41.77
60228;BME280;46091;46.512;6.626;2023-03-16T12:02:57;96953.50;;;11.61;41.52
60228;BME280;46091;46.512;6.626;2023-03-16T12:05:22;96944.94;;;11.65;41.47
60228;BME280;46091;46.512;6.626;2023-03-16T12:07:42;96942.75;;;11.69;41.50
60228;BME280;46091;46.512;6.626;2023-03-16T12:10:07;96942.94;;;11.68;41.26
60228;BME280;46091;46.512;6.626;2023-03-16T12:12:28;96944.19;;;11.72;41.47
60228;BME280;46091;46.512;6.626;2023-03-16T12:14:39;96932.56;;;11.73;41.56
60228;BME280;46091;46.512;6.626;2023-03-16T12:16:46;96927.28;;;11.73;41.59
60228;BME280;46091;46.512;6.626;2023-03-16T12:18:54;96928.50;;;11.70;41.36
60228;BME280;46091;46.512;6.626;2023-03-16T12:21:03;96933.59;;;11.72;41.20
60228;BME280;46091;46.512;6.626;2023-03-16T12:23:11;96924.00;;;11.71;41.27
60228;BME280;46091;46.512;6.626;2023-03-16T12:25:18;96929.31;;;11.71;41.23
60228;BME280;46091;46.512;6.626;2023-03-16T12:27:24;96932.56;;;11.73;40.81
60228;BME280;46091;46.512;6.626;2023-03-16T12:29:33;96926.66;;;11.71;41.30
60228;BME280;46091;46.512;6.626;2023-03-16T12:31:43;96922.78;;;11.73;41.01
60228;BME280;46091;46.512;6.626;2023-03-16T12:34:07;96921.22;;;11.79;41.23
60228;BME280;46091;46.512;6.626;2023-03-16T12:36:33;96909.03;;;11.84;40.99
60228;BME280;46091;46.512;6.626;2023-03-16T12:38:43;96916.34;;;11.89;40.64
60228;BME280;46091;46.512;6.626;2023-03-16T12:40:59;96909.06;;;11.91;41.04
60228;BME280;46091;46.512;6.626;2023-03-16T12:43:24;96912.31;;;11.93;40.84
60228;BME280;46091;46.512;6.626;2023-03-16T12:45:38;96910.28;;;11.95;41.00
60228;BME280;46091;46.512;6.626;2023-03-16T12:47:50;96903.75;;;11.98;41.03
60228;BME280;46091;46.512;6.626;2023-03-16T12:50:04;96901.56;;;12.01;40.92
60228;BME280;46091;46.512;6.626;2023-03-16T12:52:11;96905.84;;;12.02;40.75
60228;BME280;46091;46.512;6.626;2023-03-16T12:54:19;96893.59;;;12.01;40.39
60228;BME280;46091;46.512;6.626;2023-03-16T12:56:27;96896.88;;;12.03;40.40
60228;BME280;46091;46.512;6.626;2023-03-16T12:58:31;96894.81;;;12.05;40.42
60228;BME280;46091;46.512;6.626;2023-03-16T13:00:37;96890.34;;;12.06;40.48
60228;BME280;46091;46.512;6.626;2023-03-16T13:02:43;96889.94;;;12.09;40.16
60228;BME280;46091;46.512;6.626;2023-03-16T13:04:48;96886.06;;;12.11;40.19
60228;BME280;46091;46.512;6.626;2023-03-16T13:07:01;96886.69;;;12.13;40.03
60228;BME280;46091;46.512;6.626;2023-03-16T13:09:07;96890.38;;;12.12;39.95
60228;BME280;46091;46.512;6.626;2023-03-16T13:11:12;96891.19;;;12.13;39.82
60228;BME280;46091;46.512;6.626;2023-03-16T13:13:16;96887.72;;;12.12;39.94
60228;BME280;46091;46.512;6.626;2023-03-16T13:15:27;96882.22;;;12.14;39.95
60228;BME280;46091;46.512;6.626;2023-03-16T13:17:32;96878.13;;;12.11;39.49
60228;BME280;46091;46.512;6.626;2023-03-16T13:19:37;96870.56;;;12.08;39.72
60228;BME280;46091;46.512;6.626;2023-03-16T13:21:41;96865.50;;;12.13;39.35
60228;BME280;46091;46.512;6.626;2023-03-16T13:23:58;96864.06;;;12.17;39.33
60228;BME280;46091;46.512;6.626;2023-03-16T13:26:11;96858.16;;;12.22;39.56
60228;BME280;46091;46.512;6.626;2023-03-16T13:28:16;96862.47;;;12.30;39.13
60228;BME280;46091;46.512;6.626;2023-03-16T13:30:20;96855.72;;;12.34;39.10
60228;BME280;46091;46.512;6.626;2023-03-16T13:32:25;96867.56;;;12.38;39.27
60228;BME280;46091;46.512;6.626;2023-03-16T13:34:30;96864.31;;;12.42;39.04
60228;BME280;46091;46.512;6.626;2023-03-16T13:36:34;96868.00;;;12.48;38.97
60228;BME280;46091;46.512;6.626;2023-03-16T13:38:38;96860.66;;;12.50;39.17
60228;BME280;46091;46.512;6.626;2023-03-16T13:40:45;96859.41;;;12.52;38.89
60228;BME280;46091;46.512;6.626;2023-03-16T13:42:50;96854.50;;;12.56;38.83
60228;BME280;46091;46.512;6.626;2023-03-16T13:44:56;96855.16;;;12.58;38.65
60228;BME280;46091;46.512;6.626;2023-03-16T13:47:03;96859.44;;;12.59;38.74
60228;BME280;46091;46.512;6.626;2023-03-16T13:49:10;96848.81;;;12.59;38.73
60228;BME280;46091;46.512;6.626;2023-03-16T13:51:15;96848.81;;;12.59;38.63
60228;BME280;46091;46.512;6.626;2023-03-16T13:53:21;96839.25;;;12.58;38.89
60228;BME280;46091;46.512;6.626;2023-03-16T13:55:29;96850.03;;;12.57;39.04
60228;BME280;46091;46.512;6.626;2023-03-16T13:57:35;96856.75;;;12.52;38.75
60228;BME280;46091;46.512;6.626;2023-03-16T13:59:41;96853.50;;;12.50;38.89
60228;BME280;46091;46.512;6.626;2023-03-16T14:01:46;96852.09;;;12.48;38.85
60228;BME280;46091;46.512;6.626;2023-03-16T14:03:50;96853.91;;;12.47;38.83
60228;BME280;46091;46.512;6.626;2023-03-16T14:05:56;96851.28;;;12.47;39.15
60228;BME280;46091;46.512;6.626;2023-03-16T14:07:59;96837.38;;;12.45;39.00
60228;BME280;46091;46.512;6.626;2023-03-16T14:10:03;96839.22;;;12.45;39.03
60228;BME280;46091;46.512;6.626;2023-03-16T14:12:11;96840.88;;;12.46;39.19
60228;BME280;46091;46.512;6.626;2023-03-16T14:14:22;96829.84;;;12.49;39.37
60228;BME280;46091;46.512;6.626;2023-03-16T14:16:28;96827.19;;;12.49;39.12
60228;BME280;46091;46.512;6.626;2023-03-16T14:18:34;96828.81;;;12.50;39.45
60228;BME280;46091;46.512;6.626;2023-03-16T14:20:39;96822.28;;;12.52;39.42
60228;BME280;46091;46.512;6.626;2023-03-16T14:22:42;96827.19;;;12.56;39.26
60228;BME280;46091;46.512;6.626;2023-03-16T14:24:51;96825.34;;;12.56;39.21
60228;BME280;46091;46.512;6.626;2023-03-16T14:26:55;96823.13;;;12.60;39.16
60228;BME280;46091;46.512;6.626;2023-03-16T14:29:04;96833.50;;;12.61;38.96
60228;BME280;46091;46.512;6.626;2023-03-16T14:31:10;96834.72;;;12.65;38.81
60228;BME280;46091;46.512;6.626;2023-03-16T14:33:25;96839.00;;;12.66;38.92
60228;BME280;46091;46.512;6.626;2023-03-16T14:35:30;96841.44;;;12.68;38.75
60228;BME280;46091;46.512;6.626;2023-03-16T14:37:34;96832.50;;;12.69;38.99
60228;BME280;46091;46.512;6.626;2023-03-16T14:39:38;96836.97;;;12.68;38.61
60228;BME280;46091;46.512;6.626;2023-03-16T14:41:41;96831.66;;;12.68;38.94
60228;BME280;46091;46.512;6.626;2023-03-16T14:43:47;96824.72;;;12.67;38.84
60228;BME280;46091;46.512;6.626;2023-03-16T14:45:51;96819.63;;;12.72;38.65
60228;BME280;46091;46.512;6.626;2023-03-16T14:48:00;96824.31;;;12.77;38.86
60228;BME280;46091;46.512;6.626;2023-03-16T14:50:11;96815.13;;;12.79;38.88
60228;BME280;46091;46.512;6.626;2023-03-16T14:52:20;96813.69;;;12.83;38.90
60228;BME280;46091;46.512;6.626;2023-03-16T14:54:26;96813.69;;;12.83;38.67
60228;BME280;46091;46.512;6.626;2023-03-16T14:56:32;96804.72;;;12.85;38.97
60228;BME280;46091;46.512;6.626;2023-03-16T14:58:36;96805.53;;;12.85;38.72
60228;BME280;46091;46.512;6.626;2023-03-16T15:00:39;96814.31;;;12.86;38.93
60228;BME280;46091;46.512;6.626;2023-03-16T15:02:58;96807.97;;;12.87;38.97
60228;BME280;46091;46.512;6.626;2023-03-16T15:05:04;96805.31;;;12.87;38.75
60228;BME280;46091;46.512;6.626;2023-03-16T15:07:20;96809.22;;;12.84;38.98
60228;BME280;46091;46.512;6.626;2023-03-16T15:09:33;96805.53;;;12.78;38.69
60228;BME280;46091;46.512;6.626;2023-03-16T15:11:36;96807.16;;;12.79;38.89
60228;BME280;46091;46.512;6.626;2023-03-16T15:13:39;96810.84;;;12.78;38.75
60228;BME280;46091;46.512;6.626;2023-03-16T15:16:04;96809.00;;;12.79;38.69
60228;BME280;46091;46.512;6.626;2023-03-16T15:18:08;96794.53;;;12.81;38.68
60228;BME280;46091;46.512;6.626;2023-03-16T15:20:12;96788.41;;;12.81;38.41
60228;BME280;46091;46.512;6.626;2023-03-16T15:22:24;96784.72;;;12.82;38.59
60228;BME280;46091;46.512;6.626;2023-03-16T15:24:29;96783.50;;;12.85;38.15
60228;BME280;46091;46.512;6.626;2023-03-16T15:26:33;96779.22;;;12.83;38.06
60228;BME280;46091;46.512;6.626;2023-03-16T15:28:37;96771.25;;;12.83;38.26
60228;BME280;46091;46.512;6.626;2023-03-16T15:30:41;96768.81;;;12.82;38.14
60228;BME280;46091;46.512;6.626;2023-03-16T15:32:44;96764.13;;;12.84;38.19
60228;BME280;46091;46.512;6.626;2023-03-16T15:34:47;96762.06;;;12.86;38.25
60228;BME280;46091;46.512;6.626;2023-03-16T15:36:50;96757.34;;;12.88;38.03
60228;BME280;46091;46.512;6.626;2023-03-16T15:38:55;96762.66;;;12.88;37.92
60228;BME280;46091;46.512;6.626;2023-03-16T15:40:59;96764.28;;;12.89;37.85
60228;BME280;46091;46.512;6.626;2023-03-16T15:43:02;96768.78;;;12.89;37.95
60228;BME280;46091;46.512;6.626;2023-03-16T15:45:10;96761.41;;;12.91;37.65
60228;BME280;46091;46.512;6.626;2023-03-16T15:47:14;96767.38;;;12.93;37.38
60228;BME280;46091;46.512;6.626;2023-03-16T15:49:17;96766.72;;;12.91;37.23
60228;BME280;46091;46.512;6.626;2023-03-16T15:51:21;96761.41;;;12.91;37.35
60228;BME280;46091;46.512;6.626;2023-03-16T15:53:27;96758.59;;;12.92;37.34
60228;BME280;46091;46.512;6.626;2023-03-16T15:55:37;96757.78;;;12.92;37.09
60228;BME280;46091;46.512;6.626;2023-03-16T15:57:41;96747.16;;;12.92;37.40
60228;BME280;46091;46.512;6.626;2023-03-16T15:59:43;96745.31;;;12.92;37.26
60228;BME280;46091;46.512;6.626;2023-03-16T16:01:48;96747.75;;;12.94;37.22
60228;BME280;46091;46.512;6.626;2023-03-16T16:03:53;96741.44;;;12.95;36.99
60228;BME280;46091;46.512;6.626;2023-03-16T16:05:56;96742.03;;;12.97;36.98
60228;BME280;46091;46.512;6.626;2023-03-16T16:08:00;96732.00;;;12.99;36.87
60228;BME280;46091;46.512;6.626;2023-03-16T16:10:04;96734.47;;;13.00;36.64
60228;BME280;46091;46.512;6.626;2023-03-16T16:12:11;96731.59;;;13.02;36.91
60228;BME280;46091;46.512;6.626;2023-03-16T16:14:18;96732.63;;;13.01;36.85
60228;BME280;46091;46.512;6.626;2023-03-16T16:16:25;96729.97;;;13.01;36.73
60228;BME280;46091;46.512;6.626;2023-03-16T16:18:31;96729.34;;;12.99;36.54
60228;BME280;46091;46.512;6.626;2023-03-16T16:20:36;96728.75;;;12.97;36.83
60228;BME280;46091;46.512;6.626;2023-03-16T16:22:39;96737.75;;;12.96;36.43
60228;BME280;46091;46.512;6.626;2023-03-16T16:24:42;96730.00;;;12.94;36.44
60228;BME280;46091;46.512;6.626;2023-03-16T16:26:46;96727.56;;;12.93;36.27
60228;BME280;46091;46.512;6.626;2023-03-16T16:28:56;96731.25;;;12.92;36.22
60228;BME280;46091;46.512;6.626;2023-03-16T16:31:00;96735.72;;;12.91;36.25
60228;BME280;46091;46.512;6.626;2023-03-16T16:33:22;96724.28;;;12.91;36.01
60228;BME280;46091;46.512;6.626;2023-03-16T16:35:27;96731.44;;;12.90;36.11
60228;BME280;46091;46.512;6.626;2023-03-16T16:37:30;96738.56;;;12.90;36.03
60228;BME280;46091;46.512;6.626;2023-03-16T16:39:33;96738.56;;;12.90;36.04
60228;BME280;46091;46.512;6.626;2023-03-16T16:41:37;96732.25;;;12.91;35.97
60228;BME280;46091;46.512;6.626;2023-03-16T16:43:42;96734.88;;;12.91;35.94
60228;BME280;46091;46.512;6.626;2023-03-16T16:45:48;96730.59;;;12.90;35.90
60228;BME280;46091;46.512;6.626;2023-03-16T16:47:52;96730.44;;;12.91;35.75
60228;BME280;46091;46.512;6.626;2023-03-16T16:49:56;96725.13;;;12.91;35.71
60228;BME280;46091;46.512;6.626;2023-03-16T16:51:59;96720.63;;;12.92;35.75
60228;BME280;46091;46.512;6.626;2023-03-16T16:54:12;96716.13;;;12.92;35.70
60228;BME280;46091;46.512;6.626;2023-03-16T16:56:19;96729.19;;;12.94;35.75
60228;BME280;46091;46.512;6.626;2023-03-16T16:58:22;96730.81;;;12.95;35.62
60228;BME280;46091;46.512;6.626;2023-03-16T17:00:26;96727.13;;;12.96;35.53
60228;BME280;46091;46.512;6.626;2023-03-16T17:02:39;96727.94;;;12.96;35.80
60228;BME280;46091;46.512;6.626;2023-03-16T17:04:43;96723.44;;;12.97;35.60
60228;BME280;46091;46.512;6.626;2023-03-16T17:06:46;96714.47;;;12.98;35.79
60228;BME280;46091;46.512;6.626;2023-03-16T17:08:49;96718.97;;;12.97;35.57
60228;BME280;46091;46.512;6.626;2023-03-16T17:10:53;96730.38;;;12.98;35.60
60228;BME280;46091;46.512;6.626;2023-03-16T17:12:56;96718.38;;;12.95;35.48
60228;BME280;46091;46.512;6.626;2023-03-16T17:14:59;96722.63;;;12.96;35.38
60228;BME280;46091;46.512;6.626;2023-03-16T17:17:05;96719.19;;;12.96;35.41
60228;BME280;46091;46.512;6.626;2023-03-16T17:19:18;96723.06;;;12.93;35.47
60228;BME280;46091;46.512;6.626;2023-03-16T17:21:24;96721.44;;;12.92;35.49
60228;BME280;46091;46.512;6.626;2023-03-16T17:23:30;96726.13;;;12.90;35.37
60228;BME280;46091;46.512;6.626;2023-03-16T17:25:34;96727.97;;;12.90;35.28
60228;BME280;46091;46.512;6.626;2023-03-16T17:27:38;96729.19;;;12.87;35.58
60228;BME280;46091;46.512;6.626;2023-03-16T17:29:41;96732.06;;;12.86;35.23
60228;BME280;46091;46.512;6.626;2023-03-16T17:31:44;96729.84;;;12.82;35.52